sensor_id;sensor_type;location;lat;lon;timestamp;P1;durP1;ratioP1;P2;durP2;ratioP2
19149;SDS011;9707;49.158;8.632;2023-02-24T00:01:40;16.55;;;11.88;;
19149;SDS011;9707;49.158;8.632;2023-02-24T00:04:09;17.50;;;11.98;;
19149;SDS011;9707;49.158;8.632;2023-02-24T00:06:38;18.63;;;12.48;;
19149;SDS011;9707;49.158;8.632;2023-02-24T00:11:35;17.30;;;12.18;;
19149;SDS011;9707;49.158;8.632;2023-02-24T00:14:06;19.83;;;12.45;;
19149;SDS011;9707;49.158;8.632;2023-02-24T00:16:33;20.20;;;13.05;;
19149;SDS011;9707;49.158;8.632;2023-02-24T00:18:59;19.13;;;13.23;;
19149;SDS011;9707;49.158;8.632;2023-02-24T00:21:25;19.67;;;12.40;;
19149;SDS011;9707;49.158;8.632;2023-02-24T00:23:53;17.20;;;12.75;;
19149;SDS011;9707;49.158;8.632;2023-02-24T00:26:19;19.95;;;13.05;;
19149;SDS011;9707;49.158;8.632;2023-02-24T00:28:45;17.65;;;11.82;;
19149;SDS011;9707;49.158;8.632;2023-02-24T00:31:12;18.83;;;12.57;;
19149;SDS011;9707;49.158;8.632;2023-02-24T00:33:39;17.05;;;12.00;;
19149;SDS011;9707;49.158;8.632;2023-02-24T00:36:06;20.20;;;13.25;;
19149;SDS011;9707;49.158;8.632;2023-02-24T00:38:34;18.40;;;13.00;;
19149;SDS011;9707;49.158;8.632;2023-02-24T00:41:06;17.20;;;12.48;;
19149;SDS011;9707;49.158;8.632;2023-02-24T00:43:38;21.23;;;13.38;;
19149;SDS011;9707;49.158;8.632;2023-02-24T00:46:04;16.20;;;11.98;;
19149;SDS011;9707;49.158;8.632;2023-02-24T00:48:36;18.77;;;12.75;;
19149;SDS011;9707;49.158;8.632;2023-02-24T00:51:04;19.05;;;12.85;;
19149;SDS011;9707;49.158;8.632;2023-02-24T00:53:34;16.83;;;12.23;;
19149;SDS011;9707;49.158;8.632;2023-02-24T00:56:02;18.15;;;13.27;;
19149;SDS011;9707;49.158;8.632;2023-02-24T00:58:30;18.05;;;12.45;;
19149;SDS011;9707;49.158;8.632;2023-02-24T01:00:56;18.38;;;12.98;;
19149;SDS011;9707;49.158;8.632;2023-02-24T01:03:22;20.42;;;14.20;;
19149;SDS011;9707;49.158;8.632;2023-02-24T01:05:47;19.83;;;12.90;;
19149;SDS011;9707;49.158;8.632;2023-02-24T01:08:13;17.20;;;12.60;;
19149;SDS011;9707;49.158;8.632;2023-02-24T01:10:53;20.55;;;13.35;;
19149;SDS011;9707;49.158;8.632;2023-02-24T01:13:39;20.08;;;13.05;;
19149;SDS011;9707;49.158;8.632;2023-02-24T01:16:04;20.42;;;12.65;;
19149;SDS011;9707;49.158;8.632;2023-02-24T01:18:31;19.27;;;13.07;;
19149;SDS011;9707;49.158;8.632;2023-02-24T01:20:57;21.20;;;14.38;;
19149;SDS011;9707;49.158;8.632;2023-02-24T01:23:22;19.88;;;13.32;;
19149;SDS011;9707;49.158;8.632;2023-02-24T01:25:48;19.65;;;14.38;;
19149;SDS011;9707;49.158;8.632;2023-02-24T01:28:14;21.95;;;14.02;;
19149;SDS011;9707;49.158;8.632;2023-02-24T01:30:39;22.48;;;13.73;;
19149;SDS011;9707;49.158;8.632;2023-02-24T01:33:07;22.70;;;14.48;;
19149;SDS011;9707;49.158;8.632;2023-02-24T01:35:33;23.65;;;14.90;;
19149;SDS011;9707;49.158;8.632;2023-02-24T01:37:59;23.55;;;15.07;;
19149;SDS011;9707;49.158;8.632;2023-02-24T01:40:25;22.55;;;14.52;;
19149;SDS011;9707;49.158;8.632;2023-02-24T01:42:51;22.23;;;14.88;;
19149;SDS011;9707;49.158;8.632;2023-02-24T01:45:18;23.85;;;14.18;;
19149;SDS011;9707;49.158;8.632;2023-02-24T01:47:46;24.08;;;14.57;;
19149;SDS011;9707;49.158;8.632;2023-02-24T01:50:13;22.65;;;14.00;;
19149;SDS011;9707;49.158;8.632;2023-02-24T01:52:45;23.73;;;15.10;;
19149;SDS011;9707;49.158;8.632;2023-02-24T01:55:13;21.40;;;14.13;;
19149;SDS011;9707;49.158;8.632;2023-02-24T01:57:44;25.33;;;15.25;;
19149;SDS011;9707;49.158;8.632;2023-02-24T02:00:10;22.35;;;14.82;;
19149;SDS011;9707;49.158;8.632;2023-02-24T02:02:54;22.05;;;14.07;;
19149;SDS011;9707;49.158;8.632;2023-02-24T02:05:21;22.95;;;15.02;;
19149;SDS011;9707;49.158;8.632;2023-02-24T02:07:46;23.15;;;14.43;;
19149;SDS011;9707;49.158;8.632;2023-02-24T02:10:14;24.95;;;14.68;;
19149;SDS011;9707;49.158;8.632;2023-02-24T02:12:39;21.30;;;14.25;;
19149;SDS011;9707;49.158;8.632;2023-02-24T02:15:08;22.23;;;14.25;;
19149;SDS011;9707;49.158;8.632;2023-02-24T02:40:02;27.23;;;16.27;;
19149;SDS011;9707;49.158;8.632;2023-02-24T02:42:47;25.77;;;15.57;;
19149;SDS011;9707;49.158;8.632;2023-02-24T02:45:34;26.52;;;16.27;;
19149;SDS011;9707;49.158;8.632;2023-02-24T02:48:11;26.98;;;16.17;;
19149;SDS011;9707;49.158;8.632;2023-02-24T02:50:48;29.88;;;17.45;;
19149;SDS011;9707;49.158;8.632;2023-02-24T02:58:34;28.38;;;17.05;;
19149;SDS011;9707;49.158;8.632;2023-02-24T03:01:03;31.85;;;17.83;;
19149;SDS011;9707;49.158;8.632;2023-02-24T03:03:32;30.05;;;17.20;;
19149;SDS011;9707;49.158;8.632;2023-02-24T03:06:14;29.58;;;16.80;;
19149;SDS011;9707;49.158;8.632;2023-02-24T03:08:54;28.88;;;17.30;;
19149;SDS011;9707;49.158;8.632;2023-02-24T03:11:23;27.42;;;16.17;;
19149;SDS011;9707;49.158;8.632;2023-02-24T03:13:50;31.35;;;18.63;;
19149;SDS011;9707;49.158;8.632;2023-02-24T03:16:18;31.40;;;18.15;;
19149;SDS011;9707;49.158;8.632;2023-02-24T03:18:52;29.88;;;17.90;;
19149;SDS011;9707;49.158;8.632;2023-02-24T03:21:37;32.70;;;18.23;;
19149;SDS011;9707;49.158;8.632;2023-02-24T03:24:11;31.13;;;18.33;;
19149;SDS011;9707;49.158;8.632;2023-02-24T03:26:40;32.63;;;19.20;;
19149;SDS011;9707;49.158;8.632;2023-02-24T03:32:08;33.60;;;19.15;;
19149;SDS011;9707;49.158;8.632;2023-02-24T03:34:45;37.35;;;20.10;;
19149;SDS011;9707;49.158;8.632;2023-02-24T03:37:19;29.98;;;18.38;;
19149;SDS011;9707;49.158;8.632;2023-02-24T03:39:52;33.65;;;19.25;;
19149;SDS011;9707;49.158;8.632;2023-02-24T03:42:20;33.78;;;19.17;;
19149;SDS011;9707;49.158;8.632;2023-02-24T03:44:47;32.15;;;19.35;;
19149;SDS011;9707;49.158;8.632;2023-02-24T03:47:13;34.13;;;19.92;;
19149;SDS011;9707;49.158;8.632;2023-02-24T03:49:44;33.97;;;19.60;;
19149;SDS011;9707;49.158;8.632;2023-02-24T03:52:17;35.15;;;20.40;;
19149;SDS011;9707;49.158;8.632;2023-02-24T03:57:57;37.03;;;20.92;;
19149;SDS011;9707;49.158;8.632;2023-02-24T04:12:05;36.38;;;21.13;;
19149;SDS011;9707;49.158;8.632;2023-02-24T04:17:49;35.50;;;19.50;;
19149;SDS011;9707;49.158;8.632;2023-02-24T04:20:21;37.75;;;21.40;;
19149;SDS011;9707;49.158;8.632;2023-02-24T04:23:01;37.60;;;21.08;;
19149;SDS011;9707;49.158;8.632;2023-02-24T04:25:34;38.65;;;22.25;;
19149;SDS011;9707;49.158;8.632;2023-02-24T04:28:00;37.65;;;20.70;;
19149;SDS011;9707;49.158;8.632;2023-02-24T04:30:28;36.30;;;20.50;;
19149;SDS011;9707;49.158;8.632;2023-02-24T04:32:58;38.30;;;21.05;;
19149;SDS011;9707;49.158;8.632;2023-02-24T04:35:24;36.72;;;21.15;;
19149;SDS011;9707;49.158;8.632;2023-02-24T04:37:50;39.00;;;20.88;;
19149;SDS011;9707;49.158;8.632;2023-02-24T04:40:17;37.17;;;20.05;;
19149;SDS011;9707;49.158;8.632;2023-02-24T04:42:46;38.08;;;21.67;;
19149;SDS011;9707;49.158;8.632;2023-02-24T04:45:23;36.28;;;21.27;;
19149;SDS011;9707;49.158;8.632;2023-02-24T04:47:50;37.67;;;21.55;;
19149;SDS011;9707;49.158;8.632;2023-02-24T04:50:24;37.83;;;20.98;;
19149;SDS011;9707;49.158;8.632;2023-02-24T04:52:52;36.42;;;21.33;;
19149;SDS011;9707;49.158;8.632;2023-02-24T04:55:23;39.13;;;21.15;;
19149;SDS011;9707;49.158;8.632;2023-02-24T04:57:53;38.38;;;21.15;;
19149;SDS011;9707;49.158;8.632;2023-02-24T05:00:19;39.13;;;21.25;;
19149;SDS011;9707;49.158;8.632;2023-02-24T05:02:45;36.92;;;20.70;;
19149;SDS011;9707;49.158;8.632;2023-02-24T05:05:12;37.30;;;20.55;;
19149;SDS011;9707;49.158;8.632;2023-02-24T05:07:38;41.28;;;21.02;;
19149;SDS011;9707;49.158;8.632;2023-02-24T05:10:04;36.28;;;20.42;;
19149;SDS011;9707;49.158;8.632;2023-02-24T05:12:30;37.78;;;20.08;;
19149;SDS011;9707;49.158;8.632;2023-02-24T05:14:55;36.35;;;20.45;;
19149;SDS011;9707;49.158;8.632;2023-02-24T05:17:25;37.67;;;20.70;;
19149;SDS011;9707;49.158;8.632;2023-02-24T05:19:50;34.42;;;20.83;;
19149;SDS011;9707;49.158;8.632;2023-02-24T05:22:34;35.95;;;20.23;;
19149;SDS011;9707;49.158;8.632;2023-02-24T05:24:59;38.78;;;20.65;;
19149;SDS011;9707;49.158;8.632;2023-02-24T05:27:25;38.22;;;19.73;;
19149;SDS011;9707;49.158;8.632;2023-02-24T05:29:52;36.63;;;19.60;;
19149;SDS011;9707;49.158;8.632;2023-02-24T05:32:19;35.55;;;20.10;;
19149;SDS011;9707;49.158;8.632;2023-02-24T05:34:46;37.78;;;20.15;;
19149;SDS011;9707;49.158;8.632;2023-02-24T05:37:11;36.25;;;19.30;;
19149;SDS011;9707;49.158;8.632;2023-02-24T05:39:40;36.30;;;19.80;;
19149;SDS011;9707;49.158;8.632;2023-02-24T05:42:05;36.45;;;19.63;;
19149;SDS011;9707;49.158;8.632;2023-02-24T05:44:31;38.05;;;20.52;;
19149;SDS011;9707;49.158;8.632;2023-02-24T05:46:57;36.97;;;20.05;;
19149;SDS011;9707;49.158;8.632;2023-02-24T05:49:24;37.20;;;20.10;;
19149;SDS011;9707;49.158;8.632;2023-02-24T05:51:53;36.65;;;19.33;;
19149;SDS011;9707;49.158;8.632;2023-02-24T05:54:39;40.70;;;20.67;;
19149;SDS011;9707;49.158;8.632;2023-02-24T05:57:07;34.10;;;19.25;;
19149;SDS011;9707;49.158;8.632;2023-02-24T05:59:37;36.35;;;19.95;;
19149;SDS011;9707;49.158;8.632;2023-02-24T06:02:04;35.55;;;19.35;;
19149;SDS011;9707;49.158;8.632;2023-02-24T06:04:38;36.17;;;19.40;;
19149;SDS011;9707;49.158;8.632;2023-02-24T06:09:49;37.88;;;19.13;;
19149;SDS011;9707;49.158;8.632;2023-02-24T06:12:21;36.75;;;19.42;;
19149;SDS011;9707;49.158;8.632;2023-02-24T06:14:52;35.00;;;19.27;;
19149;SDS011;9707;49.158;8.632;2023-02-24T06:17:17;29.65;;;17.77;;
19149;SDS011;9707;49.158;8.632;2023-02-24T06:19:44;34.03;;;17.83;;
19149;SDS011;9707;49.158;8.632;2023-02-24T06:22:15;35.22;;;19.13;;
19149;SDS011;9707;49.158;8.632;2023-02-24T06:24:43;37.80;;;19.25;;
19149;SDS011;9707;49.158;8.632;2023-02-24T06:27:09;35.75;;;19.45;;
19149;SDS011;9707;49.158;8.632;2023-02-24T06:29:41;32.90;;;18.48;;
19149;SDS011;9707;49.158;8.632;2023-02-24T06:32:07;33.28;;;18.90;;
19149;SDS011;9707;49.158;8.632;2023-02-24T06:34:33;33.78;;;18.98;;
19149;SDS011;9707;49.158;8.632;2023-02-24T06:36:59;30.52;;;18.00;;
19149;SDS011;9707;49.158;8.632;2023-02-24T06:39:25;35.92;;;19.92;;
19149;SDS011;9707;49.158;8.632;2023-02-24T06:41:50;33.00;;;18.65;;
19149;SDS011;9707;49.158;8.632;2023-02-24T06:44:16;37.70;;;20.45;;
19149;SDS011;9707;49.158;8.632;2023-02-24T06:46:42;34.25;;;19.35;;
19149;SDS011;9707;49.158;8.632;2023-02-24T06:49:07;38.33;;;19.80;;
19149;SDS011;9707;49.158;8.632;2023-02-24T06:51:33;33.85;;;19.80;;
19149;SDS011;9707;49.158;8.632;2023-02-24T06:53:59;34.05;;;19.27;;
19149;SDS011;9707;49.158;8.632;2023-02-24T06:56:24;37.13;;;20.85;;
19149;SDS011;9707;49.158;8.632;2023-02-24T06:58:53;37.20;;;21.42;;
19149;SDS011;9707;49.158;8.632;2023-02-24T07:01:22;38.65;;;22.38;;
19149;SDS011;9707;49.158;8.632;2023-02-24T07:03:50;35.30;;;18.38;;
19149;SDS011;9707;49.158;8.632;2023-02-24T07:06:34;37.22;;;21.15;;
19149;SDS011;9707;49.158;8.632;2023-02-24T07:09:02;35.35;;;19.23;;
19149;SDS011;9707;49.158;8.632;2023-02-24T07:11:30;34.70;;;18.13;;
19149;SDS011;9707;49.158;8.632;2023-02-24T07:13:57;36.17;;;18.70;;
19149;SDS011;9707;49.158;8.632;2023-02-24T07:16:22;37.08;;;21.10;;
19149;SDS011;9707;49.158;8.632;2023-02-24T07:18:56;33.35;;;19.63;;
19149;SDS011;9707;49.158;8.632;2023-02-24T07:21:23;37.10;;;20.77;;
19149;SDS011;9707;49.158;8.632;2023-02-24T07:23:50;33.78;;;18.75;;
19149;SDS011;9707;49.158;8.632;2023-02-24T07:26:21;37.58;;;18.73;;
19149;SDS011;9707;49.158;8.632;2023-02-24T07:28:48;32.85;;;18.27;;
19149;SDS011;9707;49.158;8.632;2023-02-24T07:31:16;34.15;;;18.05;;
19149;SDS011;9707;49.158;8.632;2023-02-24T07:33:45;32.38;;;17.33;;
19149;SDS011;9707;49.158;8.632;2023-02-24T07:36:11;33.83;;;17.85;;
19149;SDS011;9707;49.158;8.632;2023-02-24T07:38:42;31.70;;;18.00;;
19149;SDS011;9707;49.158;8.632;2023-02-24T07:41:10;31.75;;;16.83;;
19149;SDS011;9707;49.158;8.632;2023-02-24T07:43:39;32.47;;;17.75;;
19149;SDS011;9707;49.158;8.632;2023-02-24T07:46:13;33.45;;;18.52;;
19149;SDS011;9707;49.158;8.632;2023-02-24T07:48:40;33.08;;;17.55;;
19149;SDS011;9707;49.158;8.632;2023-02-24T07:51:09;35.00;;;17.83;;
19149;SDS011;9707;49.158;8.632;2023-02-24T07:53:36;35.50;;;18.65;;
19149;SDS011;9707;49.158;8.632;2023-02-24T07:56:08;37.22;;;19.05;;
19149;SDS011;9707;49.158;8.632;2023-02-24T07:58:38;33.72;;;19.17;;
19149;SDS011;9707;49.158;8.632;2023-02-24T08:01:07;32.25;;;17.95;;
19149;SDS011;9707;49.158;8.632;2023-02-24T08:03:35;38.78;;;20.10;;
19149;SDS011;9707;49.158;8.632;2023-02-24T08:06:08;41.65;;;21.73;;
19149;SDS011;9707;49.158;8.632;2023-02-24T08:08:42;34.58;;;18.13;;
19149;SDS011;9707;49.158;8.632;2023-02-24T08:11:31;35.53;;;17.77;;
19149;SDS011;9707;49.158;8.632;2023-02-24T08:14:02;35.85;;;19.58;;
19149;SDS011;9707;49.158;8.632;2023-02-24T08:16:32;34.30;;;18.02;;
19149;SDS011;9707;49.158;8.632;2023-02-24T08:19:06;33.60;;;18.05;;
19149;SDS011;9707;49.158;8.632;2023-02-24T08:21:56;36.50;;;17.33;;
19149;SDS011;9707;49.158;8.632;2023-02-24T08:24:39;35.60;;;17.75;;
19149;SDS011;9707;49.158;8.632;2023-02-24T08:27:07;34.60;;;17.67;;
19149;SDS011;9707;49.158;8.632;2023-02-24T08:29:34;35.90;;;18.65;;
19149;SDS011;9707;49.158;8.632;2023-02-24T08:32:05;41.10;;;20.10;;
19149;SDS011;9707;49.158;8.632;2023-02-24T08:34:33;40.15;;;19.85;;
19149;SDS011;9707;49.158;8.632;2023-02-24T08:36:58;36.42;;;19.45;;
19149;SDS011;9707;49.158;8.632;2023-02-24T08:39:25;40.55;;;20.13;;
19149;SDS011;9707;49.158;8.632;2023-02-24T08:41:54;33.30;;;17.40;;
19149;SDS011;9707;49.158;8.632;2023-02-24T08:44:22;35.17;;;18.50;;
19149;SDS011;9707;49.158;8.632;2023-02-24T08:46:50;35.35;;;17.67;;
19149;SDS011;9707;49.158;8.632;2023-02-24T08:49:17;34.38;;;17.48;;
19149;SDS011;9707;49.158;8.632;2023-02-24T08:51:44;34.72;;;17.58;;
19149;SDS011;9707;49.158;8.632;2023-02-24T08:54:13;32.17;;;16.98;;
19149;SDS011;9707;49.158;8.632;2023-02-24T08:56:41;37.47;;;18.35;;
19149;SDS011;9707;49.158;8.632;2023-02-24T08:59:12;34.17;;;17.85;;
19149;SDS011;9707;49.158;8.632;2023-02-24T09:02:02;36.08;;;18.33;;
19149;SDS011;9707;49.158;8.632;2023-02-24T09:04:52;31.73;;;17.73;;
19149;SDS011;9707;49.158;8.632;2023-02-24T09:09:49;34.53;;;17.50;;
19149;SDS011;9707;49.158;8.632;2023-02-24T09:12:14;34.50;;;16.33;;
19149;SDS011;9707;49.158;8.632;2023-02-24T09:14:48;33.92;;;17.05;;
19149;SDS011;9707;49.158;8.632;2023-02-24T09:17:19;33.95;;;16.30;;
19149;SDS011;9707;49.158;8.632;2023-02-24T09:19:50;36.33;;;17.95;;
19149;SDS011;9707;49.158;8.632;2023-02-24T09:22:16;31.45;;;16.40;;
19149;SDS011;9707;49.158;8.632;2023-02-24T09:24:57;34.90;;;16.35;;
19149;SDS011;9707;49.158;8.632;2023-02-24T09:27:41;33.28;;;16.92;;
19149;SDS011;9707;49.158;8.632;2023-02-24T09:30:37;33.75;;;16.60;;
19149;SDS011;9707;49.158;8.632;2023-02-24T09:33:31;36.03;;;18.00;;
19149;SDS011;9707;49.158;8.632;2023-02-24T09:38:54;32.40;;;16.70;;
19149;SDS011;9707;49.158;8.632;2023-02-24T09:44:17;33.20;;;17.40;;
19149;SDS011;9707;49.158;8.632;2023-02-24T09:49:29;34.28;;;17.98;;
19149;SDS011;9707;49.158;8.632;2023-02-24T09:52:07;29.00;;;14.50;;
19149;SDS011;9707;49.158;8.632;2023-02-24T09:54:40;30.00;;;15.05;;
19149;SDS011;9707;49.158;8.632;2023-02-24T09:57:17;35.33;;;17.55;;
19149;SDS011;9707;49.158;8.632;2023-02-24T10:02:49;35.58;;;17.45;;
19149;SDS011;9707;49.158;8.632;2023-02-24T10:05:57;27.00;;;13.85;;
19149;SDS011;9707;49.158;8.632;2023-02-24T10:08:37;29.95;;;16.05;;
19149;SDS011;9707;49.158;8.632;2023-02-24T10:11:10;31.85;;;17.75;;
19149;SDS011;9707;49.158;8.632;2023-02-24T10:13:47;37.42;;;17.02;;
19149;SDS011;9707;49.158;8.632;2023-02-24T10:16:18;38.25;;;17.70;;
19149;SDS011;9707;49.158;8.632;2023-02-24T10:18:49;36.92;;;18.08;;
19149;SDS011;9707;49.158;8.632;2023-02-24T10:21:36;34.97;;;17.10;;
19149;SDS011;9707;49.158;8.632;2023-02-24T10:27:08;32.00;;;16.65;;
19149;SDS011;9707;49.158;8.632;2023-02-24T10:29:49;35.10;;;16.23;;
19149;SDS011;9707;49.158;8.632;2023-02-24T10:32:35;33.42;;;17.00;;
19149;SDS011;9707;49.158;8.632;2023-02-24T10:35:15;25.95;;;12.52;;
19149;SDS011;9707;49.158;8.632;2023-02-24T10:37:43;29.40;;;14.57;;
19149;SDS011;9707;49.158;8.632;2023-02-24T10:40:09;25.25;;;12.57;;
19149;SDS011;9707;49.158;8.632;2023-02-24T10:42:41;30.63;;;15.80;;
19149;SDS011;9707;49.158;8.632;2023-02-24T10:47:51;31.92;;;15.57;;
19149;SDS011;9707;49.158;8.632;2023-02-24T10:52:48;31.95;;;16.55;;
19149;SDS011;9707;49.158;8.632;2023-02-24T10:55:30;32.92;;;16.35;;
19149;SDS011;9707;49.158;8.632;2023-02-24T10:58:22;34.63;;;17.00;;
19149;SDS011;9707;49.158;8.632;2023-02-24T11:00:53;29.88;;;16.02;;
19149;SDS011;9707;49.158;8.632;2023-02-24T11:03:44;35.00;;;18.65;;
19149;SDS011;9707;49.158;8.632;2023-02-24T11:06:26;31.75;;;16.48;;
19149;SDS011;9707;49.158;8.632;2023-02-24T11:09:02;33.90;;;15.75;;
19149;SDS011;9707;49.158;8.632;2023-02-24T11:15:02;29.35;;;15.55;;
19149;SDS011;9707;49.158;8.632;2023-02-24T11:17:53;35.70;;;17.60;;
19149;SDS011;9707;49.158;8.632;2023-02-24T11:20:23;34.55;;;17.60;;
19149;SDS011;9707;49.158;8.632;2023-02-24T11:22:53;31.05;;;16.27;;
19149;SDS011;9707;49.158;8.632;2023-02-24T11:27:48;30.67;;;15.55;;
19149;SDS011;9707;49.158;8.632;2023-02-24T11:30:20;29.65;;;18.10;;
19149;SDS011;9707;49.158;8.632;2023-02-24T11:35:39;29.45;;;16.33;;
19149;SDS011;9707;49.158;8.632;2023-02-24T11:41:07;30.48;;;16.38;;
19149;SDS011;9707;49.158;8.632;2023-02-24T11:43:44;30.52;;;16.90;;
19149;SDS011;9707;49.158;8.632;2023-02-24T11:46:21;31.02;;;15.98;;
19149;SDS011;9707;49.158;8.632;2023-02-24T11:48:56;33.67;;;17.85;;
19149;SDS011;9707;49.158;8.632;2023-02-24T11:51:25;30.42;;;17.23;;
19149;SDS011;9707;49.158;8.632;2023-02-24T11:54:04;31.77;;;17.52;;
19149;SDS011;9707;49.158;8.632;2023-02-24T11:56:37;28.70;;;16.02;;
19149;SDS011;9707;49.158;8.632;2023-02-24T12:01:41;31.10;;;16.27;;
19149;SDS011;9707;49.158;8.632;2023-02-24T12:04:25;32.50;;;17.90;;
19149;SDS011;9707;49.158;8.632;2023-02-24T12:07:13;34.78;;;18.75;;
19149;SDS011;9707;49.158;8.632;2023-02-24T12:17:59;27.98;;;15.07;;
19149;SDS011;9707;49.158;8.632;2023-02-24T12:20:35;29.88;;;14.70;;
19149;SDS011;9707;49.158;8.632;2023-02-24T12:23:13;27.92;;;15.35;;
19149;SDS011;9707;49.158;8.632;2023-02-24T12:25:50;26.38;;;15.13;;
19149;SDS011;9707;49.158;8.632;2023-02-24T12:34:05;31.15;;;15.52;;
19149;SDS011;9707;49.158;8.632;2023-02-24T12:39:28;25.80;;;14.68;;
19149;SDS011;9707;49.158;8.632;2023-02-24T12:42:05;26.25;;;14.10;;
19149;SDS011;9707;49.158;8.632;2023-02-24T12:44:52;22.90;;;13.48;;
19149;SDS011;9707;49.158;8.632;2023-02-24T12:51:31;23.85;;;13.05;;
19149;SDS011;9707;49.158;8.632;2023-02-24T12:53:43;24.27;;;12.57;;
19149;SDS011;9707;49.158;8.632;2023-02-24T12:56:17;21.42;;;12.35;;
19149;SDS011;9707;49.158;8.632;2023-02-24T12:58:53;18.85;;;11.18;;
19149;SDS011;9707;49.158;8.632;2023-02-24T13:01:27;21.25;;;11.48;;
19149;SDS011;9707;49.158;8.632;2023-02-24T13:09:35;24.08;;;13.13;;
19149;SDS011;9707;49.158;8.632;2023-02-24T13:12:19;24.85;;;13.88;;
19149;SDS011;9707;49.158;8.632;2023-02-24T13:14:47;24.05;;;13.40;;
19149;SDS011;9707;49.158;8.632;2023-02-24T13:19:44;23.63;;;12.63;;
19149;SDS011;9707;49.158;8.632;2023-02-24T13:24:38;24.40;;;14.00;;
19149;SDS011;9707;49.158;8.632;2023-02-24T13:29:49;27.02;;;14.70;;
19149;SDS011;9707;49.158;8.632;2023-02-24T13:34:53;28.80;;;16.85;;
19149;SDS011;9707;49.158;8.632;2023-02-24T13:37:25;30.95;;;17.27;;
19149;SDS011;9707;49.158;8.632;2023-02-24T13:39:52;30.00;;;17.30;;
19149;SDS011;9707;49.158;8.632;2023-02-24T13:44:53;31.02;;;17.15;;
19149;SDS011;9707;49.158;8.632;2023-02-24T13:56:54;30.23;;;16.85;;
19149;SDS011;9707;49.158;8.632;2023-02-24T13:59:21;28.27;;;16.38;;
19149;SDS011;9707;49.158;8.632;2023-02-24T14:02:02;25.02;;;15.80;;
19149;SDS011;9707;49.158;8.632;2023-02-24T14:04:32;24.65;;;14.18;;
19149;SDS011;9707;49.158;8.632;2023-02-24T14:07:00;24.23;;;14.30;;
19149;SDS011;9707;49.158;8.632;2023-02-24T14:09:32;22.48;;;14.55;;
19149;SDS011;9707;49.158;8.632;2023-02-24T14:12:06;23.63;;;13.63;;
19149;SDS011;9707;49.158;8.632;2023-02-24T14:14:36;25.52;;;13.65;;
19149;SDS011;9707;49.158;8.632;2023-02-24T14:17:03;24.17;;;14.50;;
19149;SDS011;9707;49.158;8.632;2023-02-24T14:19:28;28.40;;;15.02;;
19149;SDS011;9707;49.158;8.632;2023-02-24T14:21:54;25.38;;;14.00;;
19149;SDS011;9707;49.158;8.632;2023-02-24T14:24:21;25.35;;;13.63;;
19149;SDS011;9707;49.158;8.632;2023-02-24T14:26:54;24.88;;;14.73;;
19149;SDS011;9707;49.158;8.632;2023-02-24T14:29:25;26.00;;;14.73;;
19149;SDS011;9707;49.158;8.632;2023-02-24T14:31:55;28.75;;;15.57;;
19149;SDS011;9707;49.158;8.632;2023-02-24T14:34:23;25.23;;;13.95;;
19149;SDS011;9707;49.158;8.632;2023-02-24T14:36:52;23.50;;;13.85;;
19149;SDS011;9707;49.158;8.632;2023-02-24T14:39:21;25.20;;;13.93;;
19149;SDS011;9707;49.158;8.632;2023-02-24T14:41:48;25.80;;;13.25;;
19149;SDS011;9707;49.158;8.632;2023-02-24T14:44:22;22.65;;;12.75;;
19149;SDS011;9707;49.158;8.632;2023-02-24T14:46:52;26.25;;;13.07;;
19149;SDS011;9707;49.158;8.632;2023-02-24T14:49:29;22.00;;;13.23;;
19149;SDS011;9707;49.158;8.632;2023-02-24T14:52:02;25.60;;;13.80;;
19149;SDS011;9707;49.158;8.632;2023-02-24T14:54:38;23.42;;;13.05;;
19149;SDS011;9707;49.158;8.632;2023-02-24T14:57:25;24.73;;;13.98;;
19149;SDS011;9707;49.158;8.632;2023-02-24T14:59:57;21.80;;;12.48;;
19149;SDS011;9707;49.158;8.632;2023-02-24T15:02:34;22.52;;;13.15;;
19149;SDS011;9707;49.158;8.632;2023-02-24T15:04:59;21.50;;;12.63;;
19149;SDS011;9707;49.158;8.632;2023-02-24T15:07:25;22.95;;;12.27;;
19149;SDS011;9707;49.158;8.632;2023-02-24T15:09:55;26.42;;;12.90;;
19149;SDS011;9707;49.158;8.632;2023-02-24T15:12:26;20.15;;;11.85;;
19149;SDS011;9707;49.158;8.632;2023-02-24T15:14:56;25.35;;;13.13;;
19149;SDS011;9707;49.158;8.632;2023-02-24T15:17:29;22.08;;;12.77;;
19149;SDS011;9707;49.158;8.632;2023-02-24T15:19:55;19.88;;;11.65;;
19149;SDS011;9707;49.158;8.632;2023-02-24T15:24:52;24.88;;;12.70;;
19149;SDS011;9707;49.158;8.632;2023-02-24T15:27:22;20.30;;;12.15;;
19149;SDS011;9707;49.158;8.632;2023-02-24T15:33:00;22.63;;;12.95;;
19149;SDS011;9707;49.158;8.632;2023-02-24T15:35:53;21.27;;;12.45;;
19149;SDS011;9707;49.158;8.632;2023-02-24T15:38:25;25.13;;;12.18;;
19149;SDS011;9707;49.158;8.632;2023-02-24T15:40:56;16.98;;;11.05;;
19149;SDS011;9707;49.158;8.632;2023-02-24T15:43:35;23.10;;;12.10;;
19149;SDS011;9707;49.158;8.632;2023-02-24T15:46:19;17.83;;;11.02;;
19149;SDS011;9707;49.158;8.632;2023-02-24T15:48:48;19.13;;;11.55;;
19149;SDS011;9707;49.158;8.632;2023-02-24T15:53:42;18.23;;;11.85;;
19149;SDS011;9707;49.158;8.632;2023-02-24T15:56:07;21.33;;;11.93;;
19149;SDS011;9707;49.158;8.632;2023-02-24T15:58:32;20.13;;;12.43;;
19149;SDS011;9707;49.158;8.632;2023-02-24T16:00:58;23.50;;;11.85;;
19149;SDS011;9707;49.158;8.632;2023-02-24T16:03:24;20.00;;;11.25;;
19149;SDS011;9707;49.158;8.632;2023-02-24T16:05:49;23.05;;;12.20;;
19149;SDS011;9707;49.158;8.632;2023-02-24T16:08:16;21.25;;;12.10;;
19149;SDS011;9707;49.158;8.632;2023-02-24T16:10:43;18.38;;;11.77;;
19149;SDS011;9707;49.158;8.632;2023-02-24T16:13:16;18.50;;;11.65;;
19149;SDS011;9707;49.158;8.632;2023-02-24T16:15:44;19.55;;;11.40;;
19149;SDS011;9707;49.158;8.632;2023-02-24T16:18:11;19.75;;;11.80;;
19149;SDS011;9707;49.158;8.632;2023-02-24T16:20:42;20.42;;;11.63;;
19149;SDS011;9707;49.158;8.632;2023-02-24T16:23:08;19.00;;;11.55;;
19149;SDS011;9707;49.158;8.632;2023-02-24T16:25:36;18.40;;;11.45;;
19149;SDS011;9707;49.158;8.632;2023-02-24T16:28:04;21.35;;;11.68;;
19149;SDS011;9707;49.158;8.632;2023-02-24T16:30:30;18.70;;;10.82;;
19149;SDS011;9707;49.158;8.632;2023-02-24T16:32:56;20.02;;;11.98;;
19149;SDS011;9707;49.158;8.632;2023-02-24T16:35:22;22.17;;;12.43;;
19149;SDS011;9707;49.158;8.632;2023-02-24T16:37:48;19.38;;;11.30;;
19149;SDS011;9707;49.158;8.632;2023-02-24T16:40:21;21.23;;;11.82;;
19149;SDS011;9707;49.158;8.632;2023-02-24T16:43:01;22.05;;;11.88;;
19149;SDS011;9707;49.158;8.632;2023-02-24T16:45:27;20.10;;;11.38;;
19149;SDS011;9707;49.158;8.632;2023-02-24T16:47:54;18.52;;;11.20;;
19149;SDS011;9707;49.158;8.632;2023-02-24T16:50:25;20.58;;;11.23;;
19149;SDS011;9707;49.158;8.632;2023-02-24T16:52:57;19.52;;;11.68;;
19149;SDS011;9707;49.158;8.632;2023-02-24T16:55:23;19.67;;;12.02;;
19149;SDS011;9707;49.158;8.632;2023-02-24T16:57:49;19.98;;;11.55;;
19149;SDS011;9707;49.158;8.632;2023-02-24T17:00:15;21.17;;;11.98;;
19149;SDS011;9707;49.158;8.632;2023-02-24T17:02:42;21.13;;;12.40;;
19149;SDS011;9707;49.158;8.632;2023-02-24T17:05:26;20.50;;;12.07;;
19149;SDS011;9707;49.158;8.632;2023-02-24T17:07:52;22.70;;;11.65;;
19149;SDS011;9707;49.158;8.632;2023-02-24T17:10:19;21.23;;;11.40;;
19149;SDS011;9707;49.158;8.632;2023-02-24T17:12:46;20.15;;;11.75;;
19149;SDS011;9707;49.158;8.632;2023-02-24T17:15:15;21.27;;;11.77;;
19149;SDS011;9707;49.158;8.632;2023-02-24T17:17:45;18.67;;;10.60;;
19149;SDS011;9707;49.158;8.632;2023-02-24T17:20:11;19.40;;;11.00;;
19149;SDS011;9707;49.158;8.632;2023-02-24T17:22:39;19.15;;;10.95;;